Caledonia, New York
Current Conditions -  °F | °C
As of 12:54 AM on Tuesday 21 Oct 2014 (Local Time) from KROC Reporting Station
Overcast Overcast  
Wind Chill: 51°   Ceiling: 4100
Heat Index: 51°   Visibility: 10mi
Dew Point: 47°   Wind: 8mph
Humidity: 86%   Direction: 200°SSW
Pressure: 29.82"   Gusts: NA
Location:  42.97°N, 77.85°W
Report Text: KROC 210454Z 20007KT 10SM SCT029 OVC041 11/08 A2982 RMK AO2 RAE46 SLP101 P0003 T01060083 401220022
Loading
Personal Weather Stations






























Interactive Weather Map
Tropical Storm Tracking
New forecast layout! Learn more

10-Day Weather Forecast

Advertisements
Track Severe Weather on mobile